Milligan, Florida
Current Conditions -  °F | °C
As of 1:53 PM on Sunday 21 Dec 2014 (Local Time) from KCEW Reporting Station
Overcast Overcast  
Wind Chill: 57°   Ceiling: 800
Heat Index: 57°   Visibility: 10mi
Dew Point: 53°   Wind: 6mph
Humidity: 87%   Direction: 70°ENE
Pressure: 30.05"   Gusts: NA
Location:  30.75°N, 86.64°W
Report Text: KCEW 211953Z AUTO 07005KT 10SM OVC008 14/12 A3005 RMK AO2 SLP174 T01390117
Loading
Personal Weather Stations






























Interactive Weather Map New forecast layout! Learn more

10-Day Weather Forecast

Advertisements
Track Severe Weather on mobile